createdAt,value
2023-01-09T00:02:10.767Z,75.58
2023-01-09T00:07:31.572Z,75.28
2023-01-09T00:12:52.315Z,75.51
2023-01-09T00:18:13.035Z,75.39
2023-01-09T00:23:33.881Z,75.08
2023-01-09T00:28:54.536Z,75.46
2023-01-09T00:34:15.301Z,75.79
2023-01-09T00:39:36.019Z,75.81
2023-01-09T00:45:01.528Z,75.81
2023-01-09T00:50:26.873Z,74.85
2023-01-09T00:55:47.541Z,74.88
2023-01-09T01:01:08.356Z,75.22
2023-01-09T01:06:47.673Z,75.12
2023-01-09T01:12:08.680Z,75.58
2023-01-09T01:17:29.698Z,75.33
2023-01-09T01:22:50.340Z,75.24
2023-01-09T01:28:11.142Z,75.46
2023-01-09T01:33:32.329Z,75.68
2023-01-09T01:38:53.383Z,75.59
2023-01-09T01:44:51.730Z,75.28
2023-01-09T01:50:31.753Z,75.50
2023-01-09T01:56:19.957Z,75.25
2023-01-09T02:01:44.441Z,75.32
2023-01-09T02:07:08.709Z,75.35
2023-01-09T02:12:29.609Z,75.72
2023-01-09T02:18:09.564Z,75.84
2023-01-09T02:23:59.946Z,75.37
2023-01-09T02:29:42.354Z,76.04
2023-01-09T02:35:49.564Z,75.74
2023-01-09T02:41:48.176Z,75.59
2023-01-09T02:47:31.952Z,75.92
2023-01-09T02:53:29.888Z,75.07
2023-01-09T02:59:13.825Z,74.69
2023-01-09T03:04:38.824Z,74.85
2023-01-09T03:10:11.110Z,75.18
2023-01-09T03:15:36.465Z,75.00
2023-01-09T03:20:57.509Z,74.70
2023-01-09T03:26:19.381Z,75.24
2023-01-09T03:31:40.027Z,74.96
2023-01-09T03:37:00.790Z,73.96
2023-01-09T03:42:21.283Z,74.32
2023-01-09T03:47:42.069Z,74.81
2023-01-09T03:53:02.763Z,73.99
2023-01-09T03:58:24.117Z,74.14
2023-01-09T04:03:44.902Z,74.29
2023-01-09T04:09:05.598Z,74.09
2023-01-09T04:14:26.229Z,74.61
2023-01-09T04:19:46.973Z,74.38
2023-01-09T04:25:08.390Z,74.62
2023-01-09T04:30:29.121Z,74.06
2023-01-09T04:35:49.952Z,74.78
2023-01-09T04:41:10.702Z,74.65
2023-01-09T04:46:31.435Z,75.47
2023-01-09T04:51:52.750Z,74.68
2023-01-09T04:57:13.427Z,75.09
2023-01-09T05:02:34.087Z,75.17
2023-01-09T05:07:55.030Z,75.09
2023-01-09T05:13:15.742Z,75.45
2023-01-09T05:18:37.484Z,75.58
2023-01-09T05:23:58.199Z,75.73
2023-01-09T05:29:18.860Z,76.25
2023-01-09T05:34:39.535Z,75.62
2023-01-09T05:40:00.031Z,75.21
2023-01-09T05:45:20.827Z,76.67
2023-01-09T05:50:41.548Z,75.78
2023-01-09T05:56:02.593Z,75.50
2023-01-09T06:01:23.994Z,75.62
2023-01-09T06:06:45.041Z,75.54
2023-01-09T06:12:06.858Z,76.04
2023-01-09T06:17:28.040Z,75.96
2023-01-09T06:22:52.021Z,75.64
2023-01-09T06:28:12.632Z,76.05
2023-01-09T06:33:33.411Z,76.24
2023-01-09T06:38:54.103Z,76.36
2023-01-09T06:44:14.983Z,76.59
2023-01-09T06:49:35.986Z,76.26
2023-01-09T06:54:56.800Z,76.23
2023-01-09T07:00:18.000Z,76.26
2023-01-09T07:05:42.397Z,76.74
2023-01-09T07:11:03.414Z,76.15
2023-01-09T07:16:24.402Z,76.31
2023-01-09T07:21:44.957Z,76.56
2023-01-09T07:27:05.601Z,76.80
2023-01-09T07:32:26.492Z,76.54
2023-01-09T07:37:47.255Z,76.33
2023-01-09T07:43:08.150Z,76.79
2023-01-09T07:48:28.958Z,77.64
2023-01-09T07:53:49.717Z,76.56
2023-01-09T07:59:10.845Z,76.55
2023-01-09T08:04:31.665Z,76.42
2023-01-09T08:09:52.414Z,76.35
2023-01-09T08:15:14.000Z,76.62
2023-01-09T08:20:35.263Z,76.53
2023-01-09T08:25:56.017Z,76.20
2023-01-09T08:31:17.042Z,76.53
2023-01-09T08:36:37.933Z,76.72
2023-01-09T08:42:17.100Z,76.31
2023-01-09T08:47:39.446Z,76.23
2023-01-09T08:53:00.339Z,77.20
2023-01-09T08:58:22.368Z,76.89
2023-01-09T09:03:43.246Z,76.72
2023-01-09T09:09:04.347Z,77.04
2023-01-09T09:14:43.781Z,76.67
2023-01-09T09:20:05.181Z,77.21
2023-01-09T09:25:26.415Z,77.24
2023-01-09T09:30:47.307Z,77.12
2023-01-09T09:36:08.132Z,77.21
2023-01-09T09:42:14.516Z,77.02
2023-01-09T09:47:52.022Z,76.72
2023-01-09T09:53:22.193Z,76.97
2023-01-09T09:58:57.176Z,77.20
2023-01-09T10:04:19.891Z,77.20
2023-01-09T10:09:51.090Z,76.99
2023-01-09T10:15:26.342Z,77.75
2023-01-09T10:21:11.744Z,76.70
2023-01-09T10:26:54.178Z,77.13
2023-01-09T10:32:30.053Z,77.38
2023-01-09T10:37:53.462Z,77.42
2023-01-09T10:43:32.448Z,77.68
2023-01-09T10:49:01.103Z,77.82
2023-01-09T10:54:26.283Z,77.96
2023-01-09T10:59:47.441Z,77.76
2023-01-09T11:05:13.466Z,77.86
2023-01-09T11:10:54.608Z,77.61
2023-01-09T11:16:22.196Z,78.13
2023-01-09T11:21:43.067Z,78.58
2023-01-09T11:27:30.112Z,77.78
2023-01-09T11:32:50.842Z,77.79
2023-01-09T11:38:11.644Z,78.37
2023-01-09T11:43:38.464Z,77.50
2023-01-09T11:49:00.500Z,77.55
2023-01-09T11:54:27.554Z,78.07
2023-01-09T11:59:48.857Z,77.67
2023-01-09T12:05:27.269Z,77.58
2023-01-09T12:10:54.221Z,77.42
2023-01-09T12:16:21.243Z,77.31
2023-01-09T12:22:14.284Z,77.16
2023-01-09T12:27:54.692Z,77.16
2023-01-09T12:33:25.660Z,78.24
2023-01-09T12:38:54.658Z,77.30
2023-01-09T12:44:39.346Z,77.07
2023-01-09T12:50:12.024Z,77.28
2023-01-09T12:55:58.751Z,76.91
2023-01-09T13:01:38.761Z,76.35
2023-01-09T13:07:04.555Z,76.35
2023-01-09T13:12:27.866Z,76.41
2023-01-09T13:17:55.775Z,76.44
2023-01-09T13:23:23.200Z,76.04
2023-01-09T13:28:49.316Z,76.09
2023-01-09T13:34:21.921Z,75.97
2023-01-09T13:39:43.390Z,75.99
2023-01-09T13:45:25.923Z,75.68
2023-01-09T13:50:48.311Z,75.45
2023-01-09T13:56:09.125Z,75.59
2023-01-09T14:01:38.290Z,75.69
2023-01-09T14:07:22.430Z,75.33
2023-01-09T14:12:43.967Z,75.04
2023-01-09T14:18:06.479Z,75.42
2023-01-09T14:23:49.784Z,75.48
2023-01-09T14:29:28.581Z,75.35
2023-01-09T14:34:57.701Z,74.97
2023-01-09T14:40:23.818Z,75.26
2023-01-09T14:45:49.754Z,74.97
2023-01-09T14:51:16.265Z,75.00
2023-01-09T14:56:47.777Z,74.76
2023-01-09T15:02:11.082Z,74.41
2023-01-09T15:07:40.533Z,74.68
2023-01-09T15:13:05.712Z,74.89
2023-01-09T15:18:30.995Z,74.69
2023-01-09T15:23:52.160Z,74.65
2023-01-09T15:29:20.563Z,74.56
2023-01-09T15:34:44.879Z,74.61
2023-01-09T15:40:08.036Z,74.82
2023-01-09T15:45:45.565Z,74.49
2023-01-09T15:51:14.499Z,74.65
2023-01-09T15:56:37.588Z,74.73
2023-01-09T16:02:20.079Z,74.89
2023-01-09T16:07:51.831Z,74.55
2023-01-09T16:13:15.636Z,74.44
2023-01-09T16:18:38.927Z,74.80
2023-01-09T16:24:03.783Z,74.29
2023-01-09T16:29:36.750Z,74.47
2023-01-09T16:35:06.639Z,74.66
2023-01-09T16:40:29.925Z,74.44
2023-01-09T16:45:51.744Z,74.28
2023-01-09T16:51:23.056Z,73.99
2023-01-09T16:56:48.472Z,73.86
2023-01-09T17:02:17.912Z,73.81
2023-01-09T17:07:39.032Z,73.99
2023-01-09T17:12:59.804Z,73.86
2023-01-09T17:18:25.969Z,73.69
2023-01-09T17:23:47.889Z,73.71
2023-01-09T17:29:08.724Z,73.60
2023-01-09T17:34:29.708Z,73.56
2023-01-09T17:39:50.514Z,73.75
2023-01-09T17:45:11.921Z,73.21
2023-01-09T17:50:34.865Z,73.25
2023-01-09T17:55:55.844Z,73.15
2023-01-09T18:01:18.253Z,73.30
2023-01-09T18:06:38.970Z,72.83
2023-01-09T18:12:00.001Z,72.81
2023-01-09T18:17:20.691Z,75.02
2023-01-09T18:22:41.487Z,73.16
2023-01-09T18:28:03.356Z,73.23
2023-01-09T18:33:24.229Z,73.88
2023-01-09T18:38:45.109Z,73.75
2023-01-09T18:44:05.915Z,73.52
2023-01-09T18:49:26.579Z,73.04
2023-01-09T18:54:47.141Z,73.46
2023-01-09T19:00:09.365Z,73.50
2023-01-09T19:05:34.656Z,73.82
2023-01-09T19:10:55.255Z,73.69
2023-01-09T19:16:16.644Z,73.27
2023-01-09T19:21:37.353Z,73.55
2023-01-09T19:26:58.188Z,73.59
2023-01-09T19:32:18.879Z,73.29
2023-01-09T19:37:39.650Z,73.42
2023-01-09T19:43:00.343Z,73.47
2023-01-09T19:48:22.798Z,73.04
2023-01-09T19:53:44.709Z,73.85
2023-01-09T19:59:06.255Z,73.56
2023-01-09T20:04:30.056Z,73.16
2023-01-09T20:09:50.760Z,73.06
2023-01-09T20:15:14.876Z,73.00
2023-01-09T20:20:38.875Z,72.77
2023-01-09T20:26:00.454Z,74.43
2023-01-09T20:31:23.572Z,73.05
2023-01-09T20:36:44.298Z,72.93
2023-01-09T20:42:05.196Z,72.66
2023-01-09T20:47:26.132Z,73.02
2023-01-09T20:52:46.832Z,72.70
2023-01-09T20:58:07.779Z,72.81
2023-01-09T21:03:28.989Z,72.43
2023-01-09T21:08:51.027Z,72.75
2023-01-09T21:14:12.243Z,72.11
2023-01-09T21:19:33.312Z,72.14
2023-01-09T21:24:54.164Z,72.26
2023-01-09T21:30:15.047Z,71.81
2023-01-09T21:35:37.488Z,72.00
2023-01-09T21:41:18.414Z,72.36
2023-01-09T21:46:57.613Z,72.95
2023-01-09T21:52:18.528Z,73.13
2023-01-09T21:57:39.355Z,72.93
2023-01-09T22:03:01.269Z,72.45
2023-01-09T22:08:21.908Z,73.03
2023-01-09T22:13:47.016Z,73.21
2023-01-09T22:19:08.052Z,72.71
2023-01-09T22:24:28.802Z,71.75
2023-01-09T22:29:49.594Z,72.26
2023-01-09T22:35:10.745Z,72.30
2023-01-09T22:40:32.289Z,72.85
2023-01-09T22:45:53.459Z,72.49
2023-01-09T22:51:16.743Z,72.63
2023-01-09T22:56:37.425Z,73.07
2023-01-09T23:01:58.279Z,72.58
2023-01-09T23:07:18.858Z,72.93
2023-01-09T23:12:39.820Z,73.23
2023-01-09T23:18:01.195Z,73.13
2023-01-09T23:23:24.466Z,73.11
2023-01-09T23:28:45.371Z,73.10
2023-01-09T23:34:08.455Z,73.39
2023-01-09T23:39:29.280Z,73.34
2023-01-09T23:44:50.075Z,73.31
2023-01-09T23:50:11.638Z,73.20
2023-01-09T23:55:32.636Z,73.35
